createdAt,value
2019-06-15T00:00:16.992Z,30.50
2019-06-15T00:00:50.815Z,30.92
2019-06-15T00:01:23.923Z,32.03
2019-06-15T00:01:58.197Z,37.15
2019-06-15T00:02:31.130Z,39.18
2019-06-15T00:03:04.129Z,50.03
2019-06-15T00:03:38.294Z,46.23
2019-06-15T00:04:11.290Z,40.52
2019-06-15T00:04:44.175Z,34.92
2019-06-15T00:05:17.167Z,39.45
2019-06-15T00:05:50.227Z,44.35
2019-06-15T00:06:23.225Z,39.33
2019-06-15T00:06:56.301Z,39.53
2019-06-15T00:07:30.313Z,47.85
2019-06-15T00:08:04.972Z,43.33
2019-06-15T00:08:38.073Z,53.15
2019-06-15T00:09:11.110Z,54.40
2019-06-15T00:09:44.016Z,44.45
2019-06-15T00:10:17.143Z,44.50
2019-06-15T00:10:50.277Z,58.78
2019-06-15T00:11:25.346Z,46.00
2019-06-15T00:11:58.416Z,38.65
2019-06-15T00:12:31.542Z,38.20
2019-06-15T00:13:04.615Z,35.43
2019-06-15T00:13:37.609Z,34.80
2019-06-15T00:14:10.755Z,36.42
2019-06-15T00:14:43.562Z,37.30
2019-06-15T00:15:16.495Z,35.70
2019-06-15T00:15:49.444Z,35.70
2019-06-15T00:16:22.446Z,33.02
2019-06-15T00:16:55.531Z,33.50
2019-06-15T00:17:28.524Z,34.43
2019-06-15T00:18:01.655Z,33.38
2019-06-15T00:18:34.585Z,32.60
2019-06-15T00:19:08.757Z,31.12
2019-06-15T00:19:41.684Z,31.80
2019-06-15T00:20:15.747Z,31.65
2019-06-15T00:20:48.644Z,32.27
2019-06-15T00:21:21.633Z,33.23
2019-06-15T00:21:54.514Z,33.30
2019-06-15T00:22:27.503Z,31.80
2019-06-15T00:23:00.507Z,32.78
2019-06-15T00:23:33.637Z,32.40
2019-06-15T00:24:06.558Z,32.20
2019-06-15T00:24:39.385Z,30.75
2019-06-15T00:25:12.735Z,30.27
2019-06-15T00:25:45.820Z,31.23
2019-06-15T00:26:18.751Z,31.15
2019-06-15T00:26:51.684Z,31.10
2019-06-15T00:27:24.773Z,33.02
2019-06-15T00:27:57.732Z,32.15
2019-06-15T00:28:30.908Z,32.23
2019-06-15T00:29:04.935Z,32.93
2019-06-15T00:29:37.910Z,42.00
2019-06-15T00:30:11.099Z,38.58
2019-06-15T00:30:45.481Z,36.45
2019-06-15T00:31:18.519Z,36.00
2019-06-15T00:31:51.623Z,35.03
2019-06-15T00:32:24.923Z,31.90
2019-06-15T00:32:59.518Z,31.95
2019-06-15T00:33:32.567Z,31.37
2019-06-15T00:34:07.917Z,31.10
2019-06-15T00:34:41.798Z,30.60
2019-06-15T00:35:14.980Z,30.80
2019-06-15T00:35:49.450Z,31.35
2019-06-15T00:36:24.124Z,31.05
2019-06-15T00:36:57.260Z,30.72
2019-06-15T00:37:31.696Z,32.63
2019-06-15T00:38:04.539Z,32.55
2019-06-15T00:38:37.517Z,32.67
2019-06-15T00:39:10.487Z,32.65
2019-06-15T00:39:45.202Z,32.15
2019-06-15T00:40:18.368Z,31.62
2019-06-15T00:40:51.454Z,31.42
2019-06-15T00:41:25.513Z,30.77
2019-06-15T00:41:58.481Z,30.23
2019-06-15T00:42:31.625Z,30.00
2019-06-15T00:43:04.689Z,30.30
2019-06-15T00:43:37.564Z,30.20
2019-06-15T00:44:10.728Z,29.98
2019-06-15T00:44:43.611Z,29.90
2019-06-15T00:45:16.802Z,30.02
2019-06-15T00:45:50.142Z,29.92
2019-06-15T00:46:23.273Z,30.25
2019-06-15T00:46:56.129Z,29.87
2019-06-15T00:47:29.222Z,29.63
2019-06-15T00:48:02.440Z,29.67
2019-06-15T00:48:36.465Z,29.80
2019-06-15T00:49:09.636Z,29.85
2019-06-15T00:49:42.596Z,29.60
2019-06-15T00:50:16.165Z,29.80
2019-06-15T00:50:49.123Z,29.80
2019-06-15T00:51:22.232Z,29.72
2019-06-15T00:51:55.281Z,29.70
2019-06-15T00:52:28.236Z,29.60
2019-06-15T00:53:01.169Z,29.60
2019-06-15T00:53:34.238Z,29.63
2019-06-15T00:54:07.143Z,30.00
2019-06-15T00:54:50.088Z,29.95
2019-06-15T00:55:15.792Z,29.60
2019-06-15T00:55:50.398Z,29.50
2019-06-15T00:56:23.529Z,29.60
2019-06-15T00:56:57.774Z,29.70
2019-06-15T00:57:30.931Z,29.50
2019-06-15T00:58:05.171Z,29.50
2019-06-15T00:58:39.819Z,29.40
2019-06-15T00:59:12.905Z,29.65
2019-06-15T00:59:45.975Z,29.52
2019-06-15T01:00:19.106Z,29.35
2019-06-15T01:00:52.040Z,29.30
2019-06-15T01:01:25.068Z,29.48
2019-06-15T01:01:58.199Z,29.32
2019-06-15T01:02:31.150Z,29.27
2019-06-15T01:03:04.289Z,29.30
2019-06-15T01:03:37.265Z,29.27
2019-06-15T01:04:10.211Z,29.30
2019-06-15T01:04:43.190Z,29.65
2019-06-15T01:05:16.268Z,29.30
2019-06-15T01:05:49.212Z,29.07
2019-06-15T01:06:22.359Z,29.40
2019-06-15T01:06:55.458Z,29.25
2019-06-15T01:07:28.390Z,29.40
2019-06-15T01:08:01.348Z,29.20
2019-06-15T01:08:34.205Z,29.23
2019-06-15T01:09:07.251Z,29.10
2019-06-15T01:09:40.304Z,29.20
2019-06-15T01:10:14.080Z,29.18
2019-06-15T01:10:47.157Z,29.25
2019-06-15T01:11:20.133Z,29.02
2019-06-15T01:11:54.667Z,29.18
2019-06-15T01:12:27.956Z,29.10
2019-06-15T01:13:01.232Z,29.30
2019-06-15T01:13:34.250Z,29.07
2019-06-15T01:14:07.422Z,29.20
2019-06-15T01:14:40.299Z,29.20
2019-06-15T01:15:13.658Z,29.30
2019-06-15T01:15:46.938Z,29.15
2019-06-15T01:16:21.514Z,29.30
2019-06-15T01:16:54.459Z,29.00
2019-06-15T01:17:27.586Z,29.00
2019-06-15T01:18:01.390Z,28.92
2019-06-15T01:18:34.535Z,29.10
2019-06-15T01:19:09.292Z,29.00
2019-06-15T01:19:42.257Z,29.10
2019-06-15T01:20:15.647Z,29.10
2019-06-15T01:20:48.764Z,29.70
2019-06-15T01:21:21.867Z,29.10
2019-06-15T01:21:54.994Z,29.23
2019-06-15T01:22:28.034Z,29.30
2019-06-15T01:23:01.160Z,29.20
2019-06-15T01:23:33.999Z,29.40
2019-06-15T01:24:07.136Z,29.40
2019-06-15T01:24:40.143Z,29.70
2019-06-15T01:25:13.237Z,29.40
2019-06-15T01:25:46.288Z,29.98
2019-06-15T01:26:20.844Z,29.77
2019-06-15T01:26:53.791Z,29.70
2019-06-15T01:27:26.813Z,29.90
2019-06-15T01:27:59.950Z,29.87
2019-06-15T01:28:32.955Z,30.10
2019-06-15T01:29:05.977Z,29.92
2019-06-15T01:29:39.082Z,29.92
2019-06-15T01:30:12.839Z,29.95
2019-06-15T01:30:46.420Z,29.85
2019-06-15T01:31:19.428Z,30.23
2019-06-15T01:31:54.090Z,30.05
2019-06-15T01:32:27.044Z,30.25
2019-06-15T01:33:00.205Z,29.85
2019-06-15T01:33:33.033Z,29.70
2019-06-15T01:34:06.210Z,29.82
2019-06-15T01:34:39.209Z,30.08
2019-06-15T01:35:12.611Z,30.10
2019-06-15T01:35:45.629Z,30.02
2019-06-15T01:36:18.771Z,30.08
2019-06-15T01:36:51.708Z,30.20
2019-06-15T01:37:25.158Z,30.00
2019-06-15T01:37:58.064Z,30.25
2019-06-15T01:38:31.095Z,30.00
2019-06-15T01:39:04.914Z,30.10
2019-06-15T01:39:38.336Z,30.40
2019-06-15T01:40:11.768Z,30.30
2019-06-15T01:40:44.850Z,30.17
2019-06-15T01:41:17.971Z,30.45
2019-06-15T01:41:51.094Z,30.10
2019-06-15T01:42:24.132Z,30.20
2019-06-15T01:42:57.155Z,30.30
2019-06-15T01:43:30.154Z,30.25
2019-06-15T01:44:03.318Z,30.40
2019-06-15T01:44:36.247Z,30.00
2019-06-15T01:45:09.602Z,30.20
2019-06-15T01:45:42.503Z,30.43
2019-06-15T01:46:15.549Z,30.37
2019-06-15T01:46:48.448Z,30.35
2019-06-15T01:47:21.511Z,30.30
2019-06-15T01:47:54.872Z,30.40
2019-06-15T01:48:28.059Z,30.55
2019-06-15T01:49:01.142Z,30.20
2019-06-15T01:49:34.328Z,30.60
2019-06-15T01:50:09.084Z,30.48
2019-06-15T01:50:42.225Z,30.65
2019-06-15T01:51:15.267Z,30.70
2019-06-15T01:51:48.203Z,30.57
2019-06-15T01:52:21.132Z,30.45
2019-06-15T01:52:54.066Z,30.50
2019-06-15T01:53:27.990Z,30.77
2019-06-15T01:54:01.436Z,30.32
2019-06-15T01:54:34.352Z,30.50
2019-06-15T01:55:19.931Z,30.75
2019-06-15T01:55:42.708Z,30.30
2019-06-15T01:56:15.867Z,30.50
2019-06-15T01:56:48.783Z,30.62
2019-06-15T01:57:21.737Z,30.60
2019-06-15T01:57:54.746Z,30.90
2019-06-15T01:58:27.822Z,30.45
2019-06-15T01:59:00.848Z,30.70
2019-06-15T01:59:33.986Z,30.85
2019-06-15T02:00:09.419Z,30.90
2019-06-15T02:00:43.648Z,31.00
2019-06-15T02:01:16.690Z,30.92
2019-06-15T02:01:49.935Z,31.05
2019-06-15T02:02:22.928Z,30.90
2019-06-15T02:02:56.031Z,30.80
2019-06-15T02:03:28.974Z,31.20
2019-06-15T02:04:01.863Z,30.90
2019-06-15T02:04:34.861Z,30.70
2019-06-15T02:05:08.833Z,30.90
2019-06-15T02:05:41.835Z,30.95
2019-06-15T02:06:14.834Z,30.77
2019-06-15T02:06:47.881Z,30.80
2019-06-15T02:07:20.891Z,30.72
2019-06-15T02:07:53.978Z,31.07
2019-06-15T02:08:26.982Z,30.82
2019-06-15T02:09:00.009Z,31.35
2019-06-15T02:09:32.888Z,31.33
2019-06-15T02:10:07.273Z,30.77
2019-06-15T02:10:40.356Z,31.15
2019-06-15T02:11:13.410Z,30.95
2019-06-15T02:11:46.369Z,31.15
2019-06-15T02:12:19.393Z,30.92
2019-06-15T02:12:52.297Z,31.10
2019-06-15T02:13:25.334Z,31.40
2019-06-15T02:13:58.427Z,31.35
2019-06-15T02:14:31.408Z,31.35
2019-06-15T02:15:04.977Z,31.35
2019-06-15T02:15:37.878Z,31.55
2019-06-15T02:16:11.936Z,31.65
2019-06-15T02:16:44.891Z,31.52
2019-06-15T02:17:18.038Z,31.68
2019-06-15T02:17:51.008Z,32.20
2019-06-15T02:18:24.046Z,32.33
2019-06-15T02:18:57.042Z,31.73
2019-06-15T02:19:30.017Z,31.70
2019-06-15T02:20:03.869Z,32.00
2019-06-15T02:20:36.861Z,31.90
2019-06-15T02:21:09.960Z,32.60
2019-06-15T02:21:43.118Z,32.20
2019-06-15T02:22:16.027Z,32.17
2019-06-15T02:22:49.121Z,32.13
2019-06-15T02:23:22.138Z,32.40
2019-06-15T02:23:55.131Z,32.10
2019-06-15T02:24:27.951Z,32.20
2019-06-15T02:25:01.002Z,32.25
2019-06-15T02:25:36.224Z,32.10
2019-06-15T02:26:08.789Z,32.33
2019-06-15T02:26:41.723Z,32.10
2019-06-15T02:27:14.727Z,32.88
2019-06-15T02:27:48.393Z,33.42
2019-06-15T02:28:21.536Z,33.02
2019-06-15T02:28:54.454Z,33.73
2019-06-15T02:29:27.574Z,32.70
2019-06-15T02:30:00.535Z,32.65
2019-06-15T02:30:33.946Z,32.60
2019-06-15T02:31:06.973Z,32.65
2019-06-15T02:31:40.818Z,32.48
2019-06-15T02:32:13.727Z,32.80
2019-06-15T02:32:46.620Z,33.00
2019-06-15T02:33:19.463Z,33.00
2019-06-15T02:33:52.298Z,33.20
2019-06-15T02:34:25.826Z,33.20
2019-06-15T02:34:58.847Z,33.35
2019-06-15T02:35:32.015Z,33.20
2019-06-15T02:36:05.049Z,33.10
2019-06-15T02:36:38.085Z,32.98
2019-06-15T02:37:11.110Z,33.08
2019-06-15T02:37:44.018Z,33.15
2019-06-15T02:38:17.153Z,33.63
2019-06-15T02:38:50.279Z,32.58
2019-06-15T02:39:23.388Z,33.10
2019-06-15T02:39:56.429Z,33.20
2019-06-15T02:40:29.451Z,33.20
2019-06-15T02:41:04.682Z,33.60
2019-06-15T02:41:38.020Z,33.73
2019-06-15T02:42:11.088Z,33.38
2019-06-15T02:42:44.138Z,34.18
2019-06-15T02:43:17.256Z,33.83
2019-06-15T02:43:50.315Z,34.35
2019-06-15T02:44:23.413Z,33.53
2019-06-15T02:44:56.543Z,34.15
2019-06-15T02:45:29.448Z,33.42
2019-06-15T02:46:02.657Z,34.00
2019-06-15T02:46:35.627Z,34.30
2019-06-15T02:47:08.733Z,33.98
2019-06-15T02:47:41.721Z,34.30
2019-06-15T02:48:14.909Z,34.03
2019-06-15T02:48:47.913Z,34.53
2019-06-15T02:49:20.836Z,34.20
2019-06-15T02:49:53.838Z,33.78
2019-06-15T02:50:26.918Z,34.23
2019-06-15T02:51:00.093Z,34.35
2019-06-15T02:51:33.361Z,34.83
2019-06-15T02:52:06.488Z,34.60
2019-06-15T02:52:39.541Z,34.63
2019-06-15T02:53:12.540Z,35.08
2019-06-15T02:53:45.709Z,35.00
2019-06-15T02:54:18.629Z,35.35
2019-06-15T02:54:51.827Z,35.90
2019-06-15T02:55:24.945Z,35.60
2019-06-15T02:55:58.058Z,35.70
2019-06-15T02:56:31.056Z,34.90
2019-06-15T02:57:04.273Z,34.95
2019-06-15T02:57:37.384Z,34.63
2019-06-15T02:58:10.425Z,34.78
2019-06-15T02:58:43.407Z,34.70
2019-06-15T02:59:16.445Z,34.50
2019-06-15T02:59:49.452Z,34.85
2019-06-15T03:00:52.463Z,34.95
2019-06-15T03:01:25.489Z,35.38
2019-06-15T03:01:59.240Z,34.78
2019-06-15T03:02:32.250Z,35.73
2019-06-15T03:03:05.345Z,35.75
2019-06-15T03:03:38.357Z,36.05
2019-06-15T03:04:11.291Z,35.60
2019-06-15T03:04:44.310Z,35.58
2019-06-15T03:05:17.347Z,35.95
2019-06-15T03:05:50.873Z,35.63
2019-06-15T03:06:24.248Z,35.43
2019-06-15T03:06:57.236Z,35.78
2019-06-15T03:07:30.502Z,35.70
2019-06-15T03:08:03.891Z,35.73
2019-06-15T03:08:37.558Z,35.75
2019-06-15T03:09:10.533Z,35.55
2019-06-15T03:09:43.851Z,36.28
2019-06-15T03:10:16.991Z,36.33
2019-06-15T03:10:50.324Z,36.48
2019-06-15T03:11:23.356Z,36.58
2019-06-15T03:11:56.414Z,35.83
2019-06-15T03:12:30.080Z,36.33
2019-06-15T03:13:03.261Z,36.38
2019-06-15T03:13:36.471Z,35.95
2019-06-15T03:14:09.531Z,36.63
2019-06-15T03:14:43.862Z,36.30
2019-06-15T03:15:17.265Z,36.58
2019-06-15T03:15:50.302Z,36.60
2019-06-15T03:16:23.260Z,36.53
2019-06-15T03:16:56.407Z,36.50
2019-06-15T03:17:29.360Z,37.00
2019-06-15T03:18:02.244Z,37.17
2019-06-15T03:18:38.589Z,36.98
2019-06-15T03:19:11.516Z,37.15
2019-06-15T03:19:44.599Z,37.30
2019-06-15T03:20:18.941Z,37.55
2019-06-15T03:20:51.956Z,38.20
2019-06-15T03:21:24.855Z,37.80
2019-06-15T03:21:57.829Z,37.25
2019-06-15T03:22:31.031Z,36.88
2019-06-15T03:23:03.977Z,38.42
2019-06-15T03:23:37.536Z,37.80
2019-06-15T03:24:10.451Z,38.05
2019-06-15T03:24:43.365Z,38.13
2019-06-15T03:25:16.499Z,38.58
2019-06-15T03:26:04.417Z,38.02
2019-06-15T03:26:25.047Z,38.58
2019-06-15T03:26:57.964Z,37.65
2019-06-15T03:27:30.900Z,38.00
2019-06-15T03:28:04.025Z,37.93
2019-06-15T03:28:36.852Z,38.15
2019-06-15T03:29:09.759Z,37.85
2019-06-15T03:29:42.690Z,38.28
2019-06-15T03:30:16.347Z,37.90
2019-06-15T03:30:49.273Z,38.15
2019-06-15T03:31:22.181Z,37.70
2019-06-15T03:31:55.156Z,38.48
2019-06-15T03:32:28.230Z,37.38
2019-06-15T03:33:01.287Z,37.23
2019-06-15T03:33:34.263Z,37.40
2019-06-15T03:34:07.201Z,37.50
2019-06-15T03:34:41.426Z,37.98
2019-06-15T03:35:15.651Z,37.20
2019-06-15T03:35:48.596Z,37.43
2019-06-15T03:36:21.566Z,36.95
2019-06-15T03:36:54.554Z,37.50
2019-06-15T03:37:27.562Z,36.90
2019-06-15T03:38:00.615Z,38.17
2019-06-15T03:38:33.667Z,38.48
2019-06-15T03:39:06.780Z,38.25
2019-06-15T03:39:39.802Z,38.30
2019-06-15T03:40:13.312Z,38.10
2019-06-15T03:40:46.271Z,38.45
2019-06-15T03:41:19.334Z,37.78
2019-06-15T03:41:52.382Z,39.40
2019-06-15T03:42:25.403Z,38.55
2019-06-15T03:42:58.458Z,39.05
2019-06-15T03:43:31.584Z,38.63
2019-06-15T03:44:04.646Z,38.42
2019-06-15T03:44:37.688Z,38.63
2019-06-15T03:45:11.114Z,38.25
2019-06-15T03:45:44.155Z,39.15
2019-06-15T03:46:17.273Z,38.48
2019-06-15T03:46:50.270Z,38.63
2019-06-15T03:47:23.210Z,39.25
2019-06-15T03:47:56.214Z,39.23
2019-06-15T03:48:29.228Z,39.73
2019-06-15T03:49:02.282Z,40.95
2019-06-15T03:49:35.178Z,40.12
2019-06-15T03:50:08.504Z,40.52
2019-06-15T03:50:41.519Z,40.38
2019-06-15T03:51:14.424Z,39.73
2019-06-15T03:51:47.472Z,39.42
2019-06-15T03:52:20.478Z,39.60
2019-06-15T03:52:53.506Z,39.20
2019-06-15T03:53:26.518Z,38.20
2019-06-15T03:53:59.489Z,38.90
2019-06-15T03:54:32.596Z,37.88
2019-06-15T03:55:05.739Z,38.17
2019-06-15T03:55:40.590Z,38.65
2019-06-15T03:56:21.466Z,38.67
2019-06-15T03:56:48.346Z,38.45
2019-06-15T03:57:21.338Z,39.10
2019-06-15T03:57:54.350Z,39.15
2019-06-15T03:58:28.394Z,38.40
2019-06-15T03:59:01.266Z,37.80
2019-06-15T03:59:34.490Z,38.25
2019-06-15T04:00:43.984Z,38.33
2019-06-15T04:01:30.978Z,38.50
2019-06-15T04:02:04.144Z,38.95
2019-06-15T04:02:37.061Z,38.05
2019-06-15T04:03:10.001Z,37.80
2019-06-15T04:03:43.014Z,37.80
2019-06-15T04:04:16.605Z,38.15
2019-06-15T04:04:52.299Z,38.02
2019-06-15T04:05:24.470Z,37.70
2019-06-15T04:05:57.576Z,37.93
2019-06-15T04:06:30.961Z,38.17
2019-06-15T04:07:04.090Z,37.23
2019-06-15T04:07:36.988Z,38.02
2019-06-15T04:08:10.099Z,38.20
2019-06-15T04:08:43.213Z,38.00
2019-06-15T04:09:16.456Z,37.95
2019-06-15T04:09:49.413Z,38.28
2019-06-15T04:10:22.530Z,38.70
2019-06-15T04:10:55.642Z,38.50
2019-06-15T04:11:28.818Z,37.33
2019-06-15T04:12:03.022Z,38.05
2019-06-15T04:12:37.693Z,36.63
2019-06-15T04:13:10.849Z,38.70
2019-06-15T04:13:43.913Z,39.05
2019-06-15T04:14:17.347Z,39.85
2019-06-15T04:14:50.331Z,39.42
2019-06-15T04:15:23.408Z,38.40
2019-06-15T04:15:56.543Z,39.27
2019-06-15T04:16:29.473Z,39.38
2019-06-15T04:17:02.589Z,39.70
2019-06-15T04:17:35.501Z,39.55
2019-06-15T04:18:08.555Z,40.70
2019-06-15T04:18:41.548Z,39.92
2019-06-15T04:19:14.728Z,40.85
2019-06-15T04:19:47.674Z,41.25
2019-06-15T04:20:22.149Z,40.63
2019-06-15T04:20:55.149Z,41.45
2019-06-15T04:21:28.217Z,41.75
2019-06-15T04:22:01.353Z,42.93
2019-06-15T04:22:34.311Z,42.30
2019-06-15T04:23:07.412Z,42.78
2019-06-15T04:23:40.464Z,42.45
2019-06-15T04:24:13.651Z,43.17
2019-06-15T04:24:46.531Z,43.00
2019-06-15T04:25:19.561Z,44.33
2019-06-15T04:25:52.644Z,43.45
2019-06-15T04:26:35.614Z,43.68
2019-06-15T04:27:00.728Z,42.70
2019-06-15T04:27:33.856Z,43.90
2019-06-15T04:28:06.942Z,44.50
2019-06-15T04:28:39.917Z,45.60
2019-06-15T04:29:12.924Z,46.15
2019-06-15T04:29:45.915Z,46.05
2019-06-15T04:30:19.310Z,45.85
2019-06-15T04:30:52.956Z,45.73
2019-06-15T04:31:26.018Z,47.15
2019-06-15T04:31:58.967Z,47.08
2019-06-15T04:32:31.954Z,46.77
2019-06-15T04:33:05.182Z,46.55
2019-06-15T04:33:38.054Z,48.13
2019-06-15T04:34:11.096Z,47.15
2019-06-15T04:34:44.078Z,48.17
2019-06-15T04:35:17.149Z,49.13
2019-06-15T04:35:50.334Z,48.87
2019-06-15T04:36:23.595Z,49.30
2019-06-15T04:36:57.863Z,47.88
2019-06-15T04:37:30.774Z,48.68
2019-06-15T04:38:04.064Z,49.20
2019-06-15T04:38:36.956Z,49.77
2019-06-15T04:39:10.140Z,49.38
2019-06-15T04:39:43.231Z,48.90
2019-06-15T04:40:16.418Z,48.02
2019-06-15T04:40:49.380Z,48.38
2019-06-15T04:41:22.860Z,47.85
2019-06-15T04:41:55.965Z,47.88
2019-06-15T04:42:29.114Z,44.35
2019-06-15T04:43:02.232Z,45.52
2019-06-15T04:43:35.393Z,45.05
2019-06-15T04:44:08.299Z,44.98
2019-06-15T04:44:41.268Z,44.30
2019-06-15T04:45:14.485Z,44.70
2019-06-15T04:45:47.526Z,43.73
2019-06-15T04:46:20.603Z,40.63
2019-06-15T04:46:53.699Z,41.35
2019-06-15T04:47:27.126Z,38.70
2019-06-15T04:48:00.226Z,38.50
2019-06-15T04:48:33.359Z,38.20
2019-06-15T04:49:06.306Z,38.85
2019-06-15T04:49:39.302Z,42.50
2019-06-15T04:50:12.589Z,41.30
2019-06-15T04:50:45.584Z,40.73
2019-06-15T04:51:18.656Z,41.48
2019-06-15T04:51:51.818Z,41.92
2019-06-15T04:52:24.760Z,40.28
2019-06-15T04:52:57.798Z,41.53
2019-06-15T04:53:30.673Z,38.33
2019-06-15T04:54:04.038Z,39.80
2019-06-15T04:54:37.144Z,40.98
2019-06-15T04:55:10.783Z,40.48
2019-06-15T04:55:43.952Z,42.73
2019-06-15T04:56:16.922Z,41.68
2019-06-15T04:56:51.214Z,41.58
2019-06-15T04:57:24.483Z,40.38
2019-06-15T04:57:57.528Z,39.48
2019-06-15T04:58:30.599Z,38.80
2019-06-15T04:59:03.662Z,39.75
2019-06-15T04:59:36.681Z,41.55
2019-06-15T05:00:10.435Z,41.42
2019-06-15T05:00:43.343Z,38.80
2019-06-15T05:01:17.641Z,39.38
2019-06-15T05:01:50.634Z,38.40
2019-06-15T05:02:27.162Z,38.67
2019-06-15T05:02:58.645Z,38.75
2019-06-15T05:03:31.739Z,39.53
2019-06-15T05:04:04.933Z,39.50
2019-06-15T05:04:37.999Z,40.55
2019-06-15T05:05:11.516Z,39.83
2019-06-15T05:05:44.712Z,40.98
2019-06-15T05:06:17.648Z,39.18
2019-06-15T05:06:50.707Z,40.50
2019-06-15T05:07:23.806Z,38.88
2019-06-15T05:07:57.388Z,41.70
2019-06-15T05:08:30.290Z,40.95
2019-06-15T05:09:05.727Z,42.10
2019-06-15T05:09:38.630Z,43.05
2019-06-15T05:10:11.856Z,39.98
2019-06-15T05:10:44.873Z,41.10
2019-06-15T05:11:18.086Z,40.35
2019-06-15T05:11:51.119Z,39.27
2019-06-15T05:12:24.210Z,41.48
2019-06-15T05:12:57.364Z,40.95
2019-06-15T05:13:30.352Z,40.80
2019-06-15T05:14:03.621Z,39.97
2019-06-15T05:14:36.698Z,40.88
2019-06-15T05:15:09.808Z,40.65
2019-06-15T05:15:42.857Z,40.70
2019-06-15T05:16:15.748Z,41.13
2019-06-15T05:16:48.784Z,36.85
2019-06-15T05:17:21.792Z,40.60
2019-06-15T05:17:54.843Z,39.18
2019-06-15T05:18:27.880Z,37.40
2019-06-15T05:19:01.057Z,38.08
2019-06-15T05:19:34.246Z,36.77
2019-06-15T05:20:08.958Z,40.70
2019-06-15T05:20:42.064Z,38.60
2019-06-15T05:21:15.218Z,37.30
2019-06-15T05:21:48.213Z,36.03
2019-06-15T05:22:21.402Z,35.78
2019-06-15T05:22:54.544Z,37.15
2019-06-15T05:23:27.478Z,36.28
2019-06-15T05:24:00.593Z,35.60
2019-06-15T05:24:33.566Z,36.28
2019-06-15T05:25:07.620Z,35.83
2019-06-15T05:25:40.661Z,36.05
2019-06-15T05:26:13.590Z,36.90
2019-06-15T05:26:46.542Z,36.33
2019-06-15T05:27:19.455Z,35.92
2019-06-15T05:27:52.390Z,38.00
2019-06-15T05:28:25.335Z,38.00
2019-06-15T05:28:58.403Z,38.48
2019-06-15T05:29:31.306Z,38.90
2019-06-15T05:30:05.548Z,40.05
2019-06-15T05:30:38.664Z,39.03
2019-06-15T05:31:11.636Z,39.45
2019-06-15T05:31:44.654Z,38.80
2019-06-15T05:32:17.710Z,39.98
2019-06-15T05:32:50.726Z,40.50
2019-06-15T05:33:23.802Z,40.45
2019-06-15T05:33:56.822Z,39.67
2019-06-15T05:34:29.875Z,39.90
2019-06-15T05:35:03.618Z,39.40
2019-06-15T05:35:36.637Z,39.15
2019-06-15T05:36:09.564Z,39.90
2019-06-15T05:36:42.552Z,40.23
2019-06-15T05:37:16.887Z,39.67
2019-06-15T05:37:49.826Z,39.90
2019-06-15T05:38:22.763Z,40.00
2019-06-15T05:38:55.734Z,39.67
2019-06-15T05:39:28.666Z,39.92
2019-06-15T05:40:01.880Z,40.10
2019-06-15T05:40:34.888Z,40.67
2019-06-15T05:41:09.174Z,40.10
2019-06-15T05:41:42.209Z,40.38
2019-06-15T05:42:15.119Z,39.63
2019-06-15T05:42:48.150Z,39.85
2019-06-15T05:43:21.247Z,39.55
2019-06-15T05:43:54.259Z,39.48
2019-06-15T05:44:29.082Z,37.63
2019-06-15T05:45:02.107Z,37.95
2019-06-15T05:45:35.222Z,37.75
2019-06-15T05:46:08.445Z,37.23
2019-06-15T05:46:41.316Z,36.93
2019-06-15T05:47:14.424Z,35.98
2019-06-15T05:47:47.502Z,36.00
2019-06-15T05:48:20.402Z,36.25
2019-06-15T05:48:53.512Z,34.80
2019-06-15T05:49:27.353Z,35.90
2019-06-15T05:50:00.368Z,36.10
2019-06-15T05:50:33.295Z,35.58
2019-06-15T05:51:06.180Z,35.95
2019-06-15T05:51:39.222Z,36.50
2019-06-15T05:52:12.259Z,37.20
2019-06-15T05:52:45.274Z,36.55
2019-06-15T05:53:18.333Z,36.98
2019-06-15T05:53:51.258Z,36.42
2019-06-15T05:54:24.110Z,35.23
2019-06-15T05:54:57.042Z,36.55
2019-06-15T05:55:30.100Z,36.48
2019-06-15T05:56:03.481Z,36.30
2019-06-15T05:56:36.593Z,37.05
2019-06-15T05:57:21.157Z,37.38
2019-06-15T05:57:44.532Z,36.95
2019-06-15T05:58:17.438Z,36.25
2019-06-15T05:58:50.298Z,36.60
2019-06-15T05:59:23.213Z,37.20
2019-06-15T05:59:56.412Z,37.23
2019-06-15T06:00:29.593Z,38.23
2019-06-15T06:01:02.658Z,38.28
2019-06-15T06:01:35.605Z,37.93
2019-06-15T06:02:08.897Z,37.78
2019-06-15T06:02:41.786Z,37.95
2019-06-15T06:03:14.842Z,38.35
2019-06-15T06:03:47.930Z,38.40
2019-06-15T06:04:21.042Z,36.80
2019-06-15T06:04:54.179Z,36.10
2019-06-15T06:05:27.230Z,36.23
2019-06-15T06:06:00.298Z,35.83
2019-06-15T06:06:33.382Z,34.65
2019-06-15T06:07:06.486Z,35.15
2019-06-15T06:07:39.564Z,35.23
2019-06-15T06:08:12.629Z,35.10
2019-06-15T06:08:45.495Z,36.00
2019-06-15T06:09:18.650Z,34.73
2019-06-15T06:09:51.788Z,36.33
2019-06-15T06:10:24.938Z,35.98
2019-06-15T06:10:58.020Z,36.28
2019-06-15T06:11:31.004Z,35.98
2019-06-15T06:12:04.229Z,35.45
2019-06-15T06:12:37.388Z,36.68
2019-06-15T06:13:10.643Z,35.73
2019-06-15T06:13:43.650Z,36.98
2019-06-15T06:14:17.794Z,37.58
2019-06-15T06:14:50.830Z,37.70
2019-06-15T06:15:26.718Z,37.45
2019-06-15T06:15:58.753Z,38.33
2019-06-15T06:16:31.826Z,37.88
2019-06-15T06:17:05.005Z,37.45
2019-06-15T06:17:38.067Z,36.55
2019-06-15T06:18:11.146Z,36.58
2019-06-15T06:18:44.116Z,37.65
2019-06-15T06:19:17.280Z,34.95
2019-06-15T06:19:50.468Z,37.17
2019-06-15T06:20:23.485Z,37.70
2019-06-15T06:20:56.553Z,36.42
2019-06-15T06:21:29.666Z,38.13
2019-06-15T06:22:02.752Z,36.68
2019-06-15T06:22:35.818Z,37.63
2019-06-15T06:23:09.035Z,36.30
2019-06-15T06:23:42.051Z,35.75
2019-06-15T06:24:15.208Z,37.05
2019-06-15T06:24:48.342Z,36.42
2019-06-15T06:25:21.515Z,37.35
2019-06-15T06:25:54.653Z,36.23
2019-06-15T06:26:28.635Z,34.65
2019-06-15T06:27:04.065Z,34.50
2019-06-15T06:27:37.372Z,34.58
2019-06-15T06:28:11.611Z,34.38
2019-06-15T06:28:56.795Z,34.10
2019-06-15T06:29:20.403Z,34.90
2019-06-15T06:29:53.560Z,35.13
2019-06-15T06:30:29.963Z,34.45
2019-06-15T06:31:01.706Z,33.83
2019-06-15T06:31:34.898Z,33.35
2019-06-15T06:32:08.200Z,33.48
2019-06-15T06:32:41.357Z,34.48
2019-06-15T06:33:15.662Z,35.17
2019-06-15T06:33:48.920Z,34.73
2019-06-15T06:34:21.904Z,35.20
2019-06-15T06:34:55.095Z,35.15
2019-06-15T06:35:28.268Z,34.55
2019-06-15T06:36:01.462Z,35.08
2019-06-15T06:36:34.567Z,35.80
2019-06-15T06:37:07.605Z,35.25
2019-06-15T06:37:40.687Z,34.43
2019-06-15T06:38:13.742Z,33.95
2019-06-15T06:38:46.708Z,34.67
2019-06-15T06:39:19.961Z,36.53
2019-06-15T06:39:53.062Z,35.10
2019-06-15T06:40:26.148Z,36.30
2019-06-15T06:40:59.242Z,36.53
2019-06-15T06:41:32.454Z,35.85
2019-06-15T06:42:05.534Z,35.25
2019-06-15T06:42:39.100Z,34.33
2019-06-15T06:43:12.188Z,35.17
2019-06-15T06:43:45.242Z,33.98
2019-06-15T06:44:18.459Z,33.30
2019-06-15T06:44:51.423Z,34.00
2019-06-15T06:45:24.634Z,35.13
2019-06-15T06:45:57.581Z,34.73
2019-06-15T06:46:30.728Z,34.38
2019-06-15T06:47:04.011Z,34.63
2019-06-15T06:47:37.055Z,34.27
2019-06-15T06:48:10.313Z,34.50
2019-06-15T06:48:43.382Z,34.80
2019-06-15T06:49:16.504Z,35.20
2019-06-15T06:49:49.343Z,35.58
2019-06-15T06:50:22.645Z,35.17
2019-06-15T06:50:55.644Z,35.30
2019-06-15T06:51:28.719Z,36.20
2019-06-15T06:52:01.684Z,35.80
2019-06-15T06:52:34.703Z,36.23
2019-06-15T06:53:07.720Z,35.60
2019-06-15T06:53:40.649Z,36.42
2019-06-15T06:54:13.604Z,36.55
2019-06-15T06:54:46.640Z,36.73
2019-06-15T06:55:19.773Z,37.25
2019-06-15T06:55:52.606Z,36.50
2019-06-15T06:56:25.662Z,37.40
2019-06-15T06:56:59.112Z,36.68
2019-06-15T06:57:32.242Z,36.65
2019-06-15T06:58:05.156Z,37.10
2019-06-15T06:58:38.133Z,37.17
2019-06-15T06:59:11.288Z,36.73
2019-06-15T06:59:46.910Z,37.08
2019-06-15T07:00:20.507Z,36.40
2019-06-15T07:00:54.698Z,36.50
2019-06-15T07:01:28.050Z,36.28
2019-06-15T07:02:01.112Z,36.15
2019-06-15T07:02:34.222Z,35.85
2019-06-15T07:03:07.317Z,35.45
2019-06-15T07:03:40.462Z,36.05
2019-06-15T07:04:13.478Z,34.67
2019-06-15T07:04:46.597Z,34.60
2019-06-15T07:05:19.616Z,34.30
2019-06-15T07:05:52.636Z,34.73
2019-06-15T07:06:26.020Z,33.75
2019-06-15T07:06:59.072Z,33.55
2019-06-15T07:07:32.140Z,33.33
2019-06-15T07:08:05.241Z,33.67
2019-06-15T07:08:38.366Z,32.93
2019-06-15T07:09:11.594Z,33.70